Time;durP1;ratioP1;P1;durP2;ratioP2;P2;SDS_P1;SDS_P2;PMS_P1;PMS_P2;Temp;Humidity;BMP_temperature;BMP_pressure;BME280_temperature;BME280_humidity;BME280_pressure;Samples;Min_cycle;Max_cycle;Signal;HPM_P1;HPM_P2
2022/01/10 00:02:11;;;;;;;0.80;0.75;;;;;;;1.83;87.59;101164.44;4973890;28;117340;-41
2022/01/10 00:04:36;;;;;;;0.55;0.47;;;;;;;1.83;87.89;101164.44;4974293;28;97410;-42
2022/01/10 00:07:02;;;;;;;1.63;1.48;;;;;;;1.85;87.71;101175.97;4974096;28;97889;-42
2022/01/10 00:09:27;;;;;;;9.85;0.95;;;;;;;1.91;87.83;101199.03;4973868;28;96810;-42
2022/01/10 00:11:53;;;;;;;3.33;0.93;;;;;;;1.88;87.44;101194.63;4972916;28;122200;-41
2022/01/10 00:14:18;;;;;;;5.00;1.27;;;;;;;1.76;87.65;101189.50;4973491;28;120339;-42
2022/01/10 00:16:43;;;;;;;2.13;1.35;;;;;;;1.94;87.60;101220.31;4973940;28;103485;-41
2022/01/10 00:19:08;;;;;;;1.65;0.95;;;;;;;1.95;87.71;101219.41;4974171;28;96583;-42
2022/01/10 00:21:34;;;;;;;2.10;0.50;;;;;;;1.97;87.95;101219.38;4973323;28;115153;-42
2022/01/10 00:23:59;;;;;;;1.90;1.42;;;;;;;1.84;87.81;101197.38;4973929;28;97837;-41
2022/01/10 00:26:24;;;;;;;2.45;1.10;;;;;;;1.89;87.79;101211.53;4973324;28;118688;-42
2022/01/10 00:28:50;;;;;;;1.35;1.08;;;;;;;1.85;87.84;101199.13;4974123;28;96548;-42
2022/01/10 00:31:15;;;;;;;1.92;1.13;;;;;;;1.89;87.54;101217.75;4972970;28;121569;-42
2022/01/10 00:33:40;;;;;;;1.83;1.58;;;;;;;2.01;87.58;101227.31;4972301;28;118969;-41
2022/01/10 00:36:06;;;;;;;0.70;0.70;;;;;;;1.88;87.98;101212.41;4972895;28;122815;-42
2022/01/10 00:38:31;;;;;;;1.88;1.20;;;;;;;1.98;87.68;101238.06;4973684;28;96625;-42
2022/01/10 00:40:56;;;;;;;2.47;1.05;;;;;;;1.99;87.91;101245.16;4973635;28;96716;-42
2022/01/10 00:43:31;;;;;;;1.17;1.00;;;;;;;2.01;87.60;101245.13;4973253;28;99264;-42
2022/01/10 00:45:57;;;;;;;1.63;1.17;;;;;;;1.94;87.89;101238.16;4973504;28;99240;-41
2022/01/10 00:48:23;;;;;;;0.98;0.93;;;;;;;1.95;87.96;101255.91;4972136;28;96566;-42
2022/01/10 00:50:49;;;;;;;1.52;1.25;;;;;;;1.83;87.71;101243.69;4973751;28;96784;-41
2022/01/10 00:53:14;;;;;;;2.65;0.90;;;;;;;1.95;87.67;101278.16;4972921;28;97501;-42
2022/01/10 00:55:39;;;;;;;1.63;1.42;;;;;;;1.88;87.96;101272.09;4973182;28;97381;-42
2022/01/10 00:58:05;;;;;;;2.78;1.33;;;;;;;1.82;87.59;101245.47;4971779;28;122286;-41
2022/01/10 01:00:30;;;;;;;2.08;1.15;;;;;;;1.93;87.87;101279.97;4973341;28;98717;-42
2022/01/10 01:02:58;;;;;;;2.10;0.88;;;;;;;1.91;87.92;101289.84;4971862;28;99755;-42
2022/01/10 01:05:24;;;;;;;0.50;0.50;;;;;;;1.64;87.82;101260.03;4971694;28;101498;-41
2022/01/10 01:07:50;;;;;;;1.73;1.27;;;;;;;1.81;87.51;101286.47;4973216;28;96598;-42
2022/01/10 01:13:03;;;;;;;3.38;0.85;;;;;;;1.77;88.40;101281.19;4971364;28;97429;-42
2022/01/10 01:15:57;;;;;;;1.52;1.08;;;;;;;1.82;87.91;101282.00;4973436;28;99344;-42
2022/01/10 01:19:01;;;;;;;1.55;1.42;;;;;;;1.90;88.31;101304.09;4971585;28;96606;-42
2022/01/10 01:26:30;;;;;;;2.22;1.42;;;;;;;1.98;88.03;101318.19;4972841;28;98112;-42
2022/01/10 01:28:56;;;;;;;4.00;1.35;;;;;;;1.85;88.29;101289.94;4971620;28;96603;-42
2022/01/10 01:31:21;;;;;;;1.38;1.23;;;;;;;1.92;88.12;101310.28;4973440;28;96732;-42
2022/01/10 01:33:47;;;;;;;1.95;1.55;;;;;;;1.95;88.02;101312.88;4971008;28;99290;-42
2022/01/10 01:36:13;;;;;;;1.38;1.13;;;;;;;1.96;88.45;101320.00;4973057;28;96580;-42
2022/01/10 01:38:40;;;;;;;4.38;1.75;;;;;;;1.84;88.28;101296.22;4972947;28;96517;-42
2022/01/10 01:41:39;;;;;;;2.50;1.55;;;;;;;2.04;88.25;101339.44;4971782;28;96770;-42
2022/01/10 01:43:54;;;;;;;1.20;1.10;;;;;;;1.94;88.50;101324.50;4972113;28;99062;-42
2022/01/10 01:46:20;;;;;;;6.65;1.15;;;;;;;1.84;88.56;101298.88;4972757;28;97410;-41
2022/01/10 01:48:46;;;;;;;3.92;1.10;;;;;;;1.98;88.74;101319.97;4972434;28;96426;-41
2022/01/10 01:51:11;;;;;;;3.90;1.13;;;;;;;2.02;88.67;101337.72;4971332;28;96762;-41
2022/01/10 01:53:37;;;;;;;1.13;1.00;;;;;;;2.10;88.54;101351.81;4972214;28;97424;-41
2022/01/10 01:56:08;;;;;;;1.85;1.40;;;;;;;1.99;89.41;101327.97;4972368;28;97084;-42
2022/01/10 01:58:35;;;;;;;1.55;1.05;;;;;;;1.98;89.10;101325.31;4971258;28;96624;-42
2022/01/10 02:01:02;;;;;;;1.80;1.48;;;;;;;2.14;88.90;101361.53;4972543;28;96479;-42
2022/01/10 02:03:27;;;;;;;2.35;2.05;;;;;;;2.16;88.49;101366.84;4972414;28;97426;-41
2022/01/10 02:05:52;;;;;;;4.50;2.08;;;;;;;2.12;88.47;101366.91;4972827;28;98299;-42
2022/01/10 02:08:24;;;;;;;8.55;1.75;;;;;;;2.15;88.61;101371.31;4971412;28;100858;-42
2022/01/10 02:10:49;;;;;;;1.23;1.03;;;;;;;2.10;88.53;101370.53;4972400;28;96714;-41
2022/01/10 02:13:14;;;;;;;3.15;2.28;;;;;;;2.03;88.30;101368.88;4970924;28;122492;-42
2022/01/10 02:15:48;;;;;;;3.88;1.80;;;;;;;2.15;88.55;101397.16;4970505;28;108580;-42
2022/01/10 02:18:15;;;;;;;1.70;1.27;;;;;;;2.11;88.81;101382.97;4972492;28;96523;-42
2022/01/10 02:20:41;;;;;;;1.77;0.88;;;;;;;2.18;88.62;101402.44;4970915;28;96811;-42
2022/01/10 02:23:06;;;;;;;1.50;0.85;;;;;;;1.94;88.74;101369.03;4972068;28;97886;-42
2022/01/10 02:25:31;;;;;;;2.90;1.35;;;;;;;2.12;88.93;101400.75;4972243;28;99550;-41
2022/01/10 02:27:57;;;;;;;3.72;2.47;;;;;;;2.04;89.16;101389.31;4972367;28;96541;-42
2022/01/10 02:30:22;;;;;;;2.85;1.65;;;;;;;2.01;88.80;101382.25;4973076;28;96761;-42
2022/01/10 02:32:48;;;;;;;3.92;1.35;;;;;;;2.06;88.73;101387.53;4971154;28;99233;-42
2022/01/10 02:35:18;;;;;;;1.58;1.33;;;;;;;2.18;88.72;101430.06;4972088;28;97786;-42
2022/01/10 02:37:43;;;;;;;1.30;1.02;;;;;;;2.04;88.93;101410.69;4970337;28;96619;-42
2022/01/10 02:40:13;;;;;;;2.15;1.92;;;;;;;2.15;88.66;101439.94;4971924;28;96789;-41
2022/01/10 02:42:39;;;;;;;1.65;1.15;;;;;;;2.17;88.92;101443.44;4970533;28;99886;-42
2022/01/10 02:45:05;;;;;;;3.20;1.52;;;;;;;2.16;88.75;101439.88;4972062;28;97851;-42
2022/01/10 02:47:31;;;;;;;1.90;1.15;;;;;;;2.19;88.51;101454.97;4970786;28;97502;-42
2022/01/10 02:49:56;;;;;;;2.35;1.38;;;;;;;2.05;88.36;101424.06;4972092;28;96798;-42
2022/01/10 02:52:22;;;;;;;3.92;0.95;;;;;;;2.21;88.63;101445.16;4971653;28;97880;-42
2022/01/10 02:54:47;;;;;;;2.75;1.60;;;;;;;2.09;88.60;101436.44;4972295;28;97793;-42
2022/01/10 02:57:12;;;;;;;9.98;2.15;;;;;;;2.02;88.86;101424.06;4971654;28;97449;-42
2022/01/10 02:59:39;;;;;;;1.20;1.10;;;;;;;2.20;88.43;101459.44;4971970;28;96806;-42
2022/01/10 03:02:07;;;;;;;6.55;1.63;;;;;;;2.19;88.60;101466.53;4971117;28;99813;-42
2022/01/10 03:04:32;;;;;;;3.70;1.58;;;;;;;2.22;88.96;101465.63;4969945;28;100437;-41
2022/01/10 03:06:58;;;;;;;7.93;2.15;;;;;;;2.09;89.35;101438.22;4971959;28;96566;-42
2022/01/10 03:09:24;;;;;;;3.05;1.85;;;;;;;2.22;89.31;101465.63;4972031;28;96730;-41
2022/01/10 03:11:49;;;;;;;3.38;2.17;;;;;;;2.26;89.26;101478.88;4971686;28;97885;-42
2022/01/10 03:14:16;;;;;;;1.58;1.30;;;;;;;2.16;89.12;101450.56;4971894;28;97932;-41
2022/01/10 03:16:41;;;;;;;2.20;1.73;;;;;;;2.19;88.75;101468.34;4970317;28;96561;-42
2022/01/10 03:19:07;;;;;;;3.33;1.80;;;;;;;2.30;88.28;101485.09;4972846;28;96954;-42
2022/01/10 03:21:33;;;;;;;2.22;1.35;;;;;;;2.13;88.73;101461.31;4975121;28;97826;-42
2022/01/10 03:23:59;;;;;;;3.83;1.77;;;;;;;2.30;88.88;101485.09;4974841;28;97798;-42
2022/01/10 03:26:26;;;;;;;2.42;2.05;;;;;;;2.21;88.83;101474.53;4974296;28;96464;-41
2022/01/10 03:28:52;;;;;;;2.88;2.08;;;;;;;2.31;88.38;101495.75;4975018;28;96793;-42
2022/01/10 03:31:18;;;;;;;4.18;1.90;;;;;;;2.26;88.59;101488.72;4974900;28;97862;-42
2022/01/10 03:33:44;;;;;;;1.60;1.25;;;;;;;2.26;88.52;101500.28;4974317;28;97782;-42
2022/01/10 03:36:09;;;;;;;2.00;1.75;;;;;;;2.37;88.95;101526.84;4974092;28;113958;-42
2022/01/10 03:38:34;;;;;;;2.00;1.80;;;;;;;2.27;88.56;101504.72;4975179;28;96754;-41
2022/01/10 03:41:00;;;;;;;3.75;1.70;;;;;;;2.29;88.99;101510.06;4973744;28;123114;-42
2022/01/10 03:43:25;;;;;;;5.55;2.38;;;;;;;2.30;89.44;101514.50;4974468;28;111974;-42
2022/01/10 03:45:50;;;;;;;4.93;2.53;;;;;;;2.36;89.19;101527.75;4973955;28;112604;-42
2022/01/10 03:48:16;;;;;;;3.25;2.03;;;;;;;2.42;89.01;101546.34;4974408;28;96742;-42
2022/01/10 03:50:41;;;;;;;2.00;1.60;;;;;;;2.33;89.35;101531.34;4973876;28;99305;-42
2022/01/10 03:53:07;;;;;;;2.20;1.80;;;;;;;2.46;88.36;101556.09;4974092;28;97561;-42
2022/01/10 03:55:32;;;;;;;7.38;1.67;;;;;;;2.48;88.94;101564.97;4974524;28;96564;-41
2022/01/10 03:58:04;;;;;;;3.40;2.22;;;;;;;2.36;88.80;101538.47;4974041;28;96806;-42
2022/01/10 04:00:29;;;;;;;4.75;2.38;;;;;;;2.47;88.71;101562.31;4972690;28;99146;-42
2022/01/10 04:03:00;;;;;;;2.20;1.83;;;;;;;2.49;88.77;101558.72;4974042;28;97527;-42
2022/01/10 04:05:25;;;;;;;1.83;1.55;;;;;;;2.46;88.84;101544.53;4974468;28;96649;-42
2022/01/10 04:07:51;;;;;;;3.75;2.22;;;;;;;2.50;89.29;101565.84;4973105;28;97678;-42
2022/01/10 04:10:16;;;;;;;5.90;2.90;;;;;;;2.53;88.75;101562.25;4973436;28;122068;-42
2022/01/10 04:12:41;;;;;;;3.67;1.90;;;;;;;2.40;88.56;101545.50;4973077;28;124247;-42
2022/01/10 04:15:08;;;;;;;2.05;1.58;;;;;;;2.40;89.45;101553.50;4972808;28;117542;-41
2022/01/10 04:17:34;;;;;;;3.53;2.05;;;;;;;2.53;89.14;101568.47;4973605;28;96830;-42
2022/01/10 04:19:59;;;;;;;4.53;3.30;;;;;;;2.52;89.06;101569.34;4974206;28;97390;-42
2022/01/10 04:22:24;;;;;;;3.22;2.10;;;;;;;2.48;89.19;101567.66;4973321;28;117438;-42
2022/01/10 04:24:49;;;;;;;1.70;1.27;;;;;;;2.47;89.37;101570.34;4973635;28;112654;-42
2022/01/10 04:27:15;;;;;;;2.30;1.65;;;;;;;2.61;89.42;101594.19;4973001;28;122288;-42
2022/01/10 04:29:40;;;;;;;5.15;3.80;;;;;;;2.59;89.76;101598.69;4972611;28;113419;-41
2022/01/10 04:32:12;;;;;;;2.08;1.88;;;;;;;2.55;89.65;101597.81;4973390;28;97868;-42
2022/01/10 04:34:53;;;;;;;3.45;2.38;;;;;;;2.49;89.72;101592.59;4973739;28;96676;-42
2022/01/10 04:37:18;;;;;;;4.03;2.90;;;;;;;2.62;89.92;101614.66;4973648;28;96829;-41
2022/01/10 04:39:43;;;;;;;2.88;2.00;;;;;;;2.53;89.48;101607.69;4972500;28;123410;-42
2022/01/10 04:42:09;;;;;;;5.40;2.97;;;;;;;2.54;89.34;101607.66;4973310;28;109566;-42
2022/01/10 04:44:34;;;;;;;5.43;3.50;;;;;;;2.53;88.73;101616.59;4972537;28;96715;-42
2022/01/10 04:46:59;;;;;;;6.97;1.77;;;;;;;2.66;89.46;101643.13;4972825;28;116760;-41
2022/01/10 04:49:26;;;;;;;2.35;2.08;;;;;;;2.66;89.56;101637.78;4972763;28;123659;-42
2022/01/10 04:51:52;;;;;;;3.75;2.55;;;;;;;2.54;89.08;101617.47;4973298;28;97817;-42
2022/01/10 04:54:18;;;;;;;5.65;3.47;;;;;;;2.61;89.47;101643.22;4973445;28;96758;-42
2022/01/10 04:56:44;;;;;;;3.53;2.38;;;;;;;2.54;89.45;101638.84;4973957;28;96885;-41
2022/01/10 04:59:10;;;;;;;2.88;2.20;;;;;;;2.66;89.97;101665.41;4973288;28;97931;-42
2022/01/10 05:01:35;;;;;;;3.13;2.38;;;;;;;2.65;89.89;101660.97;4973647;28;97285;-41
2022/01/10 05:04:01;;;;;;;4.80;2.70;;;;;;;2.70;89.78;101674.28;4970678;28;118150;-42
2022/01/10 05:06:26;;;;;;;2.63;2.30;;;;;;;2.61;89.97;101667.28;4973336;28;96796;-41
2022/01/10 05:08:52;;;;;;;2.55;2.20;;;;;;;2.68;90.57;101681.44;4973252;28;97964;-42
2022/01/10 05:11:18;;;;;;;4.13;2.92;;;;;;;2.70;89.84;101685.84;4971731;28;101399;-42
2022/01/10 05:13:44;;;;;;;11.45;3.03;;;;;;;2.49;89.78;101646.06;4973144;28;96616;-42
2022/01/10 05:16:09;;;;;;;4.53;3.03;;;;;;;2.70;90.74;101680.50;4972779;28;110643;-42
2022/01/10 05:18:36;;;;;;;3.90;2.45;;;;;;;2.68;90.66;101682.31;4973196;28;97896;-42
2022/01/10 05:21:02;;;;;;;4.05;2.70;;;;;;;2.62;90.03;101671.75;4973421;28;97876;-42
2022/01/10 05:23:27;;;;;;;1.98;1.42;;;;;;;2.51;89.85;101654.97;4973004;28;108955;-42
2022/01/10 05:25:52;;;;;;;7.47;2.75;;;;;;;2.73;90.30;101698.31;4971696;28;98156;-42
2022/01/10 05:28:19;;;;;;;3.58;2.45;;;;;;;2.66;89.88;101693.94;4971981;28;98950;-42
2022/01/10 05:30:45;;;;;;;2.22;1.90;;;;;;;2.75;90.29;101712.53;4971559;28;100901;-42
2022/01/10 05:33:10;;;;;;;5.57;3.15;;;;;;;2.55;90.06;101681.63;4972540;28;96710;-42
2022/01/10 05:35:36;;;;;;;3.13;2.42;;;;;;;2.75;89.48;101717.88;4972783;28;96801;-42
2022/01/10 05:38:02;;;;;;;4.22;2.17;;;;;;;2.74;89.55;101729.47;4971379;28;100705;-42
2022/01/10 05:40:28;;;;;;;4.43;2.67;;;;;;;2.61;89.41;101709.19;4971281;28;99010;-42
2022/01/10 05:42:53;;;;;;;6.72;2.30;;;;;;;2.72;90.02;101729.53;4971464;28;96662;-42
2022/01/10 05:45:19;;;;;;;3.22;2.20;;;;;;;2.69;89.61;101734.00;4972724;28;112768;-41
2022/01/10 05:47:46;;;;;;;2.53;2.28;;;;;;;2.54;89.84;101709.25;4972726;28;97757;-42
2022/01/10 05:50:16;;;;;;;14.00;3.10;;;;;;;2.62;89.60;101722.56;4972898;28;97312;-42
2022/01/10 05:52:42;;;;;;;2.50;2.17;;;;;;;2.64;89.90;101727.84;4972291;28;96781;-41
2022/01/10 05:55:07;;;;;;;4.75;2.90;;;;;;;2.72;89.62;101756.28;4973046;28;96845;-42
2022/01/10 05:57:33;;;;;;;3.25;2.95;;;;;;;2.75;89.81;101753.53;4971688;28;99641;-42
2022/01/10 05:59:58;;;;;;;4.15;3.17;;;;;;;2.72;89.31;101752.72;4972499;28;97823;-41
2022/01/10 06:02:23;;;;;;;3.95;2.58;;;;;;;2.65;89.53;101743.00;4972008;28;120838;-41
2022/01/10 06:05:07;;;;;;;6.57;3.78;;;;;;;2.74;89.28;101758.91;4972580;28;96764;-42
2022/01/10 06:07:32;;;;;;;5.95;2.13;;;;;;;2.63;89.29;101745.69;4972516;28;97991;-42
2022/01/10 06:09:57;;;;;;;7.38;2.92;;;;;;;2.75;89.62;101784.75;4971876;28;121103;-42
2022/01/10 06:12:23;;;;;;;2.83;1.65;;;;;;;2.76;90.04;101794.53;4972602;28;96507;-42
2022/01/10 06:14:48;;;;;;;10.60;3.30;;;;;;;2.66;89.71;101772.41;4971547;28;121760;-42
2022/01/10 06:17:13;;;;;;;3.88;3.05;;;;;;;2.72;90.09;101782.16;4970533;28;126856;-42
2022/01/10 06:19:38;;;;;;;8.55;3.05;;;;;;;2.75;89.69;101792.78;4971442;28;111469;-42
2022/01/10 06:22:04;;;;;;;2.90;2.33;;;;;;;2.69;89.71;101792.88;4969151;28;123545;-42
2022/01/10 06:24:30;;;;;;;2.83;1.65;;;;;;;2.65;89.77;101785.81;4972194;28;96739;-42
2022/01/10 06:26:55;;;;;;;3.28;2.47;;;;;;;2.78;89.96;101806.13;4972113;28;99278;-42
2022/01/10 06:29:21;;;;;;;2.55;2.00;;;;;;;2.65;89.91;101792.03;4972142;28;97926;-42
2022/01/10 06:31:46;;;;;;;4.03;2.60;;;;;;;2.67;89.80;101802.69;4971004;28;121551;-42
2022/01/10 06:34:11;;;;;;;4.40;3.30;;;;;;;2.78;89.63;101829.31;4972174;28;112680;-42
2022/01/10 06:36:36;;;;;;;4.35;3.38;;;;;;;2.66;89.97;101812.50;4971263;28;127322;-42
2022/01/10 06:39:02;;;;;;;6.43;2.97;;;;;;;2.65;90.45;101817.91;4971984;28;97808;-42
2022/01/10 06:41:27;;;;;;;3.70;1.90;;;;;;;2.76;90.08;101834.66;4971613;28;96581;-42
2022/01/10 06:43:53;;;;;;;30.13;2.60;;;;;;;2.66;90.05;101819.66;4972341;28;96777;-42
2022/01/10 06:46:18;;;;;;;17.45;4.15;;;;;;;2.78;90.16;101848.03;4971121;28;127128;-42
2022/01/10 06:48:43;;;;;;;3.10;2.10;;;;;;;2.70;90.28;101841.00;4971363;28;116232;-42
2022/01/10 06:51:09;;;;;;;4.95;3.00;;;;;;;2.62;90.43;101831.28;4972137;28;96646;-42
2022/01/10 06:53:34;;;;;;;3.83;2.58;;;;;;;2.61;90.44;101849.13;4972982;28;96579;-42
2022/01/10 06:56:00;;;;;;;3.67;2.10;;;;;;;2.68;90.21;101861.53;4974954;28;99304;-41
2022/01/10 06:58:25;;;;;;;3.70;2.67;;;;;;;2.73;90.00;101873.06;4975688;28;97788;-42
2022/01/10 07:00:50;;;;;;;10.10;3.47;;;;;;;2.81;89.96;101880.09;4973250;28;116793;-42
2022/01/10 07:03:15;;;;;;;2.45;1.70;;;;;;;2.72;89.69;101870.41;4974761;28;112191;-42
2022/01/10 07:05:41;;;;;;;6.55;3.22;;;;;;;2.84;89.96;101893.47;4973959;28;125743;-42
2022/01/10 07:08:07;;;;;;;6.68;4.03;;;;;;;2.72;89.55;101870.41;4974655;28;109796;-42
2022/01/10 07:10:32;;;;;;;5.13;2.75;;;;;;;2.85;89.71;101901.44;4973915;28;97075;-42
2022/01/10 07:12:58;;;;;;;3.72;2.45;;;;;;;2.72;89.60;101889.16;4973432;28;103321;-42
2022/01/10 07:15:25;;;;;;;2.67;2.30;;;;;;;2.88;89.70;101925.47;4975056;28;97984;-42
2022/01/10 07:17:57;;;;;;;9.63;2.45;;;;;;;2.76;89.72;101906.91;4974726;28;99340;-42
2022/01/10 07:20:22;;;;;;;4.40;2.72;;;;;;;2.90;89.71;101933.50;4975260;28;96575;-41
2022/01/10 07:22:48;;;;;;;5.03;2.40;;;;;;;2.74;89.41;101917.66;4975558;28;96809;-42
2022/01/10 07:25:13;;;;;;;4.18;2.88;;;;;;;2.87;90.22;101945.13;4974710;28;99392;-42
2022/01/10 07:27:39;;;;;;;2.97;2.38;;;;;;;2.86;89.89;101950.47;4974881;28;97838;-42
2022/01/10 07:30:05;;;;;;;2.95;2.25;;;;;;;2.91;89.87;101965.59;4974424;28;96558;-42
2022/01/10 07:32:31;;;;;;;3.75;2.55;;;;;;;2.87;90.12;101962.97;4974417;28;96937;-42
2022/01/10 07:34:57;;;;;;;4.43;3.10;;;;;;;2.88;89.43;101959.38;4974761;28;97951;-42
2022/01/10 07:37:23;;;;;;;9.88;4.95;;;;;;;2.82;89.64;101955.00;4973077;28;101116;-42
2022/01/10 07:39:48;;;;;;;3.50;2.63;;;;;;;2.95;89.58;101979.81;4973258;28;96688;-42
2022/01/10 07:42:14;;;;;;;6.68;4.05;;;;;;;2.85;89.41;101967.47;4974784;28;96739;-41
2022/01/10 07:44:39;;;;;;;16.17;3.88;;;;;;;2.87;89.66;101966.53;4974304;28;99098;-42
2022/01/10 07:47:04;;;;;;;4.25;3.70;;;;;;;2.84;90.06;101969.25;4974578;28;108692;-42
2022/01/10 07:49:30;;;;;;;2.42;1.85;;;;;;;2.93;90.29;101995.91;4975020;28;96493;-42
2022/01/10 07:51:57;;;;;;;4.68;3.58;;;;;;;2.92;90.17;101998.59;4974655;28;96466;-42
2022/01/10 07:54:24;;;;;;;4.82;2.90;;;;;;;2.88;89.43;101987.03;4972190;28;98857;-42
2022/01/10 07:56:49;;;;;;;5.38;3.35;;;;;;;3.04;89.75;102021.66;4974264;28;97885;-42
2022/01/10 07:59:15;;;;;;;4.85;3.05;;;;;;;2.84;89.43;101993.34;4974107;28;107609;-42
2022/01/10 08:01:40;;;;;;;10.57;2.75;;;;;;;3.05;89.95;102028.75;4974477;28;96751;-42
2022/01/10 08:04:05;;;;;;;13.20;4.05;;;;;;;2.96;89.81;102016.41;4972658;28;99735;-42
2022/01/10 08:06:31;;;;;;;2.85;2.38;;;;;;;2.96;89.63;102017.28;4970690;28;125712;-42
2022/01/10 08:08:56;;;;;;;4.35;2.95;;;;;;;3.09;89.57;102036.75;4972767;28;96567;-42
2022/01/10 08:11:26;;;;;;;4.28;3.03;;;;;;;2.94;89.27;102013.72;4973918;28;114775;-42
2022/01/10 08:13:51;;;;;;;4.25;2.83;;;;;;;3.11;90.03;102042.09;4973895;28;99616;-42
2022/01/10 08:16:17;;;;;;;7.28;2.85;;;;;;;2.98;89.78;102031.53;4974104;28;97937;-42
2022/01/10 08:18:42;;;;;;;5.80;2.38;;;;;;;3.02;90.01;102035.03;4972950;28;119402;-42
2022/01/10 08:21:07;;;;;;;3.72;2.45;;;;;;;2.93;89.69;102021.75;4972622;28;96905;-42
2022/01/10 08:23:33;;;;;;;13.00;3.30;;;;;;;2.97;89.81;102035.09;4974102;28;97920;-42
2022/01/10 08:25:59;;;;;;;5.57;3.53;;;;;;;3.14;89.67;102074.16;4973872;28;97363;-42
2022/01/10 08:28:24;;;;;;;4.03;2.78;;;;;;;3.17;89.29;102076.81;4973869;28;96634;-42
2022/01/10 08:30:50;;;;;;;5.00;3.38;;;;;;;3.13;89.33;102078.66;4973858;28;96773;-42
2022/01/10 08:33:15;;;;;;;5.40;2.35;;;;;;;3.06;89.46;102065.34;4973337;28;97884;-42
2022/01/10 08:35:41;;;;;;;3.17;2.75;;;;;;;3.19;89.96;102091.06;4973008;28;122876;-41
2022/01/10 08:38:06;;;;;;;4.43;3.08;;;;;;;3.06;89.61;102071.59;4974235;28;96617;-42
2022/01/10 08:40:32;;;;;;;4.85;2.90;;;;;;;3.09;90.18;102081.38;4973806;28;96798;-42
2022/01/10 08:42:57;;;;;;;5.18;3.03;;;;;;;3.11;89.64;102076.91;4973262;28;97436;-42
2022/01/10 08:45:23;;;;;;;2.65;2.28;;;;;;;3.23;89.50;102105.31;4973535;28;97860;-42
2022/01/10 08:47:48;;;;;;;2.20;1.73;;;;;;;3.16;89.69;102091.09;4973762;28;96573;-42
2022/01/10 08:50:14;;;;;;;4.70;2.42;;;;;;;3.16;89.65;102100.03;4973765;28;96791;-42
2022/01/10 08:52:40;;;;;;;4.70;3.38;;;;;;;3.18;89.80;102095.53;4972803;28;99242;-42
2022/01/10 08:55:08;;;;;;;8.00;4.32;;;;;;;3.21;89.21;102096.41;4972018;28;99169;-42
2022/01/10 08:57:34;;;;;;;2.72;2.25;;;;;;;3.20;90.13;102098.22;4973158;28;96729;-41
2022/01/10 09:00:01;;;;;;;3.42;2.15;;;;;;;3.35;89.81;102118.56;4974053;28;96743;-42
2022/01/10 09:02:26;;;;;;;7.15;2.83;;;;;;;3.36;89.61;102118.56;4973261;28;97933;-42
2022/01/10 09:04:52;;;;;;;4.82;3.13;;;;;;;3.22;89.43;102099.09;4973154;28;97910;-42
2022/01/10 09:07:18;;;;;;;5.18;2.50;;;;;;;3.42;89.35;102124.75;4972821;28;97153;-42
2022/01/10 09:09:43;;;;;;;3.83;2.45;;;;;;;3.30;89.61;102112.38;4973354;28;96895;-42
2022/01/10 09:12:10;;;;;;;5.18;3.72;;;;;;;3.44;90.00;102133.66;4971662;28;99582;-42
2022/01/10 09:14:35;;;;;;;6.63;3.10;;;;;;;3.34;89.68;102120.38;4971734;28;100758;-42
2022/01/10 09:17:01;;;;;;;7.55;3.38;;;;;;;3.42;89.50;102139.03;4972986;28;96502;-42
2022/01/10 09:19:26;;;;;;;4.13;2.83;;;;;;;3.45;89.32;102136.31;4972973;28;96759;-42
2022/01/10 09:21:52;;;;;;;4.13;2.42;;;;;;;3.42;89.40;102127.44;4972719;28;110095;-42
2022/01/10 09:24:17;;;;;;;2.70;2.15;;;;;;;3.55;89.50;102150.47;4973284;28;97805;-42
2022/01/10 09:26:42;;;;;;;5.75;3.53;;;;;;;3.47;89.49;102133.63;4973151;28;96682;-42
2022/01/10 09:29:08;;;;;;;3.72;2.80;;;;;;;3.51;89.43;102136.25;4972850;28;96881;-41
2022/01/10 09:31:34;;;;;;;3.47;2.35;;;;;;;3.63;89.47;102162.00;4972184;28;96776;-42
2022/01/10 09:34:00;;;;;;;5.72;3.53;;;;;;;3.56;89.29;102152.28;4972579;28;97879;-42
2022/01/10 09:36:27;;;;;;;4.07;2.72;;;;;;;3.60;89.23;102145.97;4971532;28;96551;-42
2022/01/10 09:38:55;;;;;;;5.57;2.42;;;;;;;3.74;89.62;102172.59;4971543;28;96767;-42
2022/01/10 09:41:21;;;;;;;19.17;4.75;;;;;;;3.53;89.36;102145.16;4972460;28;98237;-42
2022/01/10 09:43:59;;;;;;;4.78;2.53;;;;;;;3.72;89.63;102175.31;4972886;28;97406;-42
2022/01/10 09:46:25;;;;;;;9.23;3.63;;;;;;;3.69;89.39;102172.63;4973026;28;96519;-42
2022/01/10 09:48:52;;;;;;;2.72;2.47;;;;;;;3.70;89.30;102177.09;4972963;28;96821;-42
2022/01/10 09:51:18;;;;;;;4.78;2.72;;;;;;;3.86;89.13;102196.56;4971093;28;99560;-42
2022/01/10 09:53:43;;;;;;;3.20;2.53;;;;;;;3.79;89.47;102181.44;4972422;28;97885;-42
2022/01/10 09:56:09;;;;;;;19.77;4.03;;;;;;;3.93;89.23;102205.41;4972036;28;96786;-42
2022/01/10 09:58:34;;;;;;;10.07;2.70;;;;;;;3.94;89.45;102212.56;4972784;28;96728;-42
2022/01/10 10:01:01;;;;;;;4.38;3.03;;;;;;;3.97;89.21;102217.88;4972453;28;97992;-42
2022/01/10 10:03:26;;;;;;;7.55;2.92;;;;;;;4.01;88.89;102225.00;4972113;28;102876;-42
2022/01/10 10:05:52;;;;;;;11.02;3.13;;;;;;;3.98;89.16;102222.31;4972681;28;96535;-42
2022/01/10 10:08:20;;;;;;;3.45;1.95;;;;;;;3.93;88.86;102210.78;4971023;28;96857;-42
2022/01/10 10:10:46;;;;;;;7.10;3.97;;;;;;;3.99;88.90;102219.63;4972334;28;97407;-42
2022/01/10 10:13:14;;;;;;;3.95;2.75;;;;;;;3.88;88.54;102192.06;4971075;28;100684;-42
2022/01/10 10:15:40;;;;;;;8.43;4.10;;;;;;;4.01;88.29;102209.78;4970943;28;96713;-42
2022/01/10 10:18:08;;;;;;;4.28;3.13;;;;;;;4.20;88.44;102242.63;4972556;28;96749;-42
2022/01/10 10:20:33;;;;;;;9.30;3.60;;;;;;;4.15;88.33;102233.75;4970214;28;99050;-42
2022/01/10 10:22:59;;;;;;;5.25;2.63;;;;;;;4.28;88.30;102258.59;4972004;28;99822;-42
2022/01/10 10:25:24;;;;;;;13.98;3.75;;;;;;;4.35;88.39;102272.84;4972689;28;96577;-42
2022/01/10 10:27:49;;;;;;;9.18;3.20;;;;;;;4.28;88.33;102255.03;4972751;28;115539;-42
2022/01/10 10:30:26;;;;;;;6.85;2.65;;;;;;;4.42;88.28;102275.41;4978674;28;97827;-42
2022/01/10 10:32:52;;;;;;;3.60;2.53;;;;;;;4.33;88.58;102258.56;4978239;28;99400;-42
2022/01/10 10:35:18;;;;;;;11.38;3.40;;;;;;;4.31;88.16;102255.88;4978827;28;96507;-42
2022/01/10 10:37:45;;;;;;;4.20;2.40;;;;;;;4.35;87.80;102256.75;4979461;28;96748;-42
2022/01/10 10:40:14;;;;;;;8.25;3.05;;;;;;;4.42;87.85;102269.16;4977270;28;99191;-41
2022/01/10 10:42:41;;;;;;;9.48;3.75;;;;;;;4.46;88.09;102278.97;4978545;28;97780;-42
2022/01/10 10:45:09;;;;;;;10.70;3.42;;;;;;;4.52;87.89;102281.53;4976591;28;96770;-42
2022/01/10 10:47:36;;;;;;;4.20;2.38;;;;;;;4.55;87.75;102297.59;4977063;28;97596;-42
2022/01/10 10:50:05;;;;;;;5.03;3.35;;;;;;;4.46;88.07;102284.31;4977088;28;100779;-42
2022/01/10 10:52:37;;;;;;;3.25;2.08;;;;;;;4.56;87.71;102301.19;4978263;28;98373;-42
2022/01/10 10:55:09;;;;;;;11.88;4.53;;;;;;;4.59;87.75;102314.56;4977103;28;98728;-42
2022/01/10 10:57:36;;;;;;;7.60;3.20;;;;;;;4.48;87.79;102290.53;4977808;28;96878;-42
2022/01/10 11:00:06;;;;;;;4.35;3.05;;;;;;;4.44;87.64;102291.50;4978504;28;97506;-42
2022/01/10 11:02:32;;;;;;;10.18;3.47;;;;;;;4.60;87.77;102317.22;4977122;28;101819;-42
2022/01/10 11:05:02;;;;;;;5.38;3.53;;;;;;;4.54;87.50;102303.88;4978262;28;104045;-42
2022/01/10 11:07:31;;;;;;;5.93;3.60;;;;;;;4.58;87.30;102308.31;4978252;28;96769;-42
2022/01/10 11:10:02;;;;;;;4.18;2.63;;;;;;;4.72;87.52;102336.75;4976156;28;100904;-42
2022/01/10 11:12:28;;;;;;;7.63;3.30;;;;;;;4.65;87.49;102325.22;4960275;28;101125;-42
2022/01/10 11:14:56;;;;;;;6.38;3.45;;;;;;;4.64;87.68;102310.91;4978602;28;96683;-42
2022/01/10 11:17:22;;;;;;;4.93;3.53;;;;;;;4.72;87.76;102324.22;4976863;28;97138;-42
2022/01/10 11:20:06;;;;;;;4.55;2.90;;;;;;;4.81;87.41;102342.00;4976605;28;100964;-42
2022/01/10 11:22:32;;;;;;;3.15;2.60;;;;;;;4.82;87.27;102341.09;4976408;28;99216;-42
2022/01/10 11:24:57;;;;;;;8.52;3.63;;;;;;;4.75;87.67;102329.56;4977488;28;113385;-42
2022/01/10 11:27:43;;;;;;;8.27;5.10;;;;;;;4.90;87.14;102353.50;4978702;28;96570;-42
2022/01/10 11:30:29;;;;;;;5.60;3.30;;;;;;;4.92;87.23;102361.53;4976600;28;99048;-42
2022/01/10 11:33:05;;;;;;;5.25;3.22;;;;;;;4.81;87.40;102350.03;4976994;28;97888;-41
2022/01/10 11:35:33;;;;;;;7.13;2.85;;;;;;;4.93;87.28;102370.47;4976207;28;96616;-42
2022/01/10 11:37:59;;;;;;;8.38;4.47;;;;;;;4.87;87.32;102358.03;4978285;28;96734;-42